Terminal Aerodrome Forecast
Issued by NWS

Home | Current Version | Previous Version | Text Only | Print | Product List | Glossary On
Versions: 1 2 3 4 5 6 7 8 9 10 11 12 13 14
000
FTUS45 KRIW 301720
TAFCPR
TAF
KCPR 301720Z 3018/3118 30011KT P6SM SCT060 BKN100
     FM302000 30012G18KT P6SM VCSH SCT060 BKN080
     FM302200 36012G20KT P6SM VCTS SCT050CB BKN070
     FM310200 03011KT P6SM VCSH BKN045
     FM310600 31008KT P6SM BKN045
     FM311600 31014G22KT P6SM SCT060=

USA.gov is the U.S. government's official web portal to all federal, state and local government web resources and services.